Time;durP1;ratioP1;P1;durP2;ratioP2;P2;SDS_P1;SDS_P2;PMS_P1;PMS_P2;Temp;Humidity;BMP_temperature;BMP_pressure;BME280_temperature;BME280_humidity;BME280_pressure;Samples;Min_cycle;Max_cycle;Signal;HPM_P1;HPM_P2
2022/05/15 00:02:19;;;;;;;16.40;9.00;;;11.60;99.90;;;;;;5114824;28;20218;-68
2022/05/15 00:04:45;;;;;;;14.50;8.37;;;11.50;99.90;;;;;;5114004;28;20618;-68
2022/05/15 00:07:11;;;;;;;12.43;8.40;;;11.50;99.90;;;;;;5114310;28;20253;-68
2022/05/15 00:09:37;;;;;;;12.30;8.67;;;11.50;99.90;;;;;;5114143;28;20181;-68
2022/05/15 00:12:04;;;;;;;16.40;8.87;;;11.50;99.90;;;;;;5095961;28;20229;-67
2022/05/15 00:14:30;;;;;;;12.83;8.80;;;11.40;99.90;;;;;;5114113;28;20200;-68
2022/05/15 00:16:56;;;;;;;15.57;8.83;;;11.40;99.90;;;;;;5117228;28;20195;-68
2022/05/15 00:19:21;;;;;;;11.00;8.23;;;11.40;99.90;;;;;;5118391;28;20176;-68
2022/05/15 00:21:47;;;;;;;14.40;8.33;;;11.40;99.90;;;;;;5100242;28;20224;-68
2022/05/15 00:24:13;;;;;;;14.03;8.40;;;11.40;99.90;;;;;;5118529;28;20269;-68
2022/05/15 00:26:39;;;;;;;14.37;8.43;;;11.40;99.90;;;;;;5100268;28;20649;-68
2022/05/15 00:29:05;;;;;;;14.53;8.33;;;11.40;99.90;;;;;;5118876;28;20251;-68
2022/05/15 00:31:31;;;;;;;11.13;7.50;;;11.40;99.90;;;;;;5119476;28;20529;-68
2022/05/15 00:33:56;;;;;;;14.00;8.70;;;11.30;99.90;;;;;;5118599;28;20177;-69
2022/05/15 00:36:22;;;;;;;9.23;7.47;;;11.30;99.90;;;;;;5118360;28;20633;-68
2022/05/15 00:38:48;;;;;;;12.03;7.37;;;11.30;99.90;;;;;;5099956;28;20184;-68
2022/05/15 00:41:14;;;;;;;10.37;7.83;;;11.30;99.90;;;;;;5118174;28;20195;-68
2022/05/15 00:43:42;;;;;;;13.63;7.73;;;11.30;99.90;;;;;;5118167;28;20203;-68
2022/05/15 00:46:13;;;;;;;10.47;7.20;;;11.20;99.90;;;;;;5118195;28;20685;-69
2022/05/15 00:48:39;;;;;;;11.83;8.77;;;11.20;99.90;;;;;;5099613;28;20176;-69
2022/05/15 00:51:25;;;;;;;12.07;8.23;;;11.10;99.90;;;;;;5099591;28;20180;-68
2022/05/15 00:53:55;;;;;;;9.23;7.63;;;11.10;99.90;;;;;;5099813;28;20679;-68
2022/05/15 00:56:24;;;;;;;15.10;8.17;;;11.10;99.90;;;;;;5118491;28;20562;-68
2022/05/15 00:59:04;;;;;;;12.07;8.93;;;11.00;99.90;;;;;;5100820;28;20229;-68
2022/05/15 01:01:30;;;;;;;16.60;8.47;;;10.90;99.90;;;;;;5120902;28;20168;-69
2022/05/15 01:03:55;;;;;;;13.17;8.30;;;10.90;99.90;;;;;;5120487;28;20230;-68
2022/05/15 01:06:21;;;;;;;13.40;8.77;;;10.90;99.90;;;;;;5101363;28;20562;-68
2022/05/15 01:08:47;;;;;;;13.50;9.07;;;10.90;99.90;;;;;;5120756;28;20181;-68
2022/05/15 01:11:17;;;;;;;12.43;8.93;;;10.90;99.90;;;;;;5120819;28;20172;-68
2022/05/15 01:13:44;;;;;;;15.63;9.07;;;10.80;99.90;;;;;;5119686;28;20192;-68
2022/05/15 01:16:12;;;;;;;12.10;9.30;;;10.80;99.90;;;;;;5119386;28;20245;-68
2022/05/15 01:18:39;;;;;;;15.00;8.20;;;10.80;99.90;;;;;;5118636;28;20180;-68
2022/05/15 01:21:24;;;;;;;10.90;8.23;;;10.80;99.90;;;;;;5117864;28;20204;-68
2022/05/15 01:23:51;;;;;;;12.57;9.17;;;10.80;99.90;;;;;;5118115;28;20192;-68
2022/05/15 01:26:17;;;;;;;14.10;9.10;;;10.70;99.90;;;;;;5117863;28;20192;-68
2022/05/15 01:28:45;;;;;;;12.53;9.33;;;10.70;99.90;;;;;;5117758;28;20263;-68
2022/05/15 01:31:12;;;;;;;12.10;8.80;;;10.70;99.90;;;;;;5118653;28;20180;-68
2022/05/15 01:33:38;;;;;;;11.50;9.30;;;10.70;99.90;;;;;;5118656;28;20524;-68
2022/05/15 01:36:05;;;;;;;13.20;8.77;;;10.70;99.90;;;;;;5118016;28;20211;-69
2022/05/15 01:38:31;;;;;;;9.77;8.40;;;10.70;99.90;;;;;;5118279;28;20221;-67
2022/05/15 01:40:57;;;;;;;12.17;8.80;;;10.60;99.90;;;;;;5117926;28;20179;-68
2022/05/15 01:43:22;;;;;;;14.13;9.03;;;10.60;99.90;;;;;;5117728;28;20215;-68
2022/05/15 01:45:48;;;;;;;11.97;8.40;;;10.60;99.90;;;;;;5117843;28;20177;-69
2022/05/15 01:48:14;;;;;;;11.80;8.53;;;10.50;99.90;;;;;;5118405;28;20172;-68
2022/05/15 01:50:40;;;;;;;10.23;8.10;;;10.50;99.90;;;;;;5117376;28;20230;-68
2022/05/15 01:53:06;;;;;;;14.23;8.50;;;10.40;99.90;;;;;;5117701;28;20590;-68
2022/05/15 01:55:31;;;;;;;13.50;8.20;;;10.40;99.90;;;;;;5116886;28;20274;-68
2022/05/15 01:57:57;;;;;;;12.67;8.93;;;10.50;99.90;;;;;;5117385;28;20196;-68
2022/05/15 02:00:25;;;;;;;13.57;8.33;;;10.40;99.90;;;;;;5117207;28;20180;-68
2022/05/15 02:02:52;;;;;;;12.83;8.77;;;10.40;99.90;;;;;;5098652;28;20587;-68
2022/05/15 02:05:19;;;;;;;13.80;8.87;;;10.30;99.90;;;;;;5116697;28;20626;-68
2022/05/15 02:07:47;;;;;;;12.77;9.43;;;10.30;99.90;;;;;;5098356;28;20200;-68
2022/05/15 02:10:13;;;;;;;14.60;9.07;;;10.30;99.90;;;;;;5116689;28;20165;-71
2022/05/15 02:12:39;;;;;;;10.53;8.53;;;10.20;99.90;;;;;;5116539;28;20301;-68
2022/05/15 02:15:06;;;;;;;10.90;8.20;;;10.10;99.90;;;;;;5117112;28;20620;-68
2022/05/15 02:17:32;;;;;;;13.03;8.90;;;10.10;99.90;;;;;;5116408;28;20668;-68
2022/05/15 02:19:58;;;;;;;14.37;9.00;;;10.10;99.90;;;;;;5116358;28;20191;-68
2022/05/15 02:22:24;;;;;;;12.03;8.07;;;10.00;99.90;;;;;;5097814;28;20173;-68
2022/05/15 02:24:49;;;;;;;13.37;8.07;;;9.90;99.90;;;;;;5097878;28;20610;-68
2022/05/15 02:27:15;;;;;;;12.87;8.80;;;9.70;99.90;;;;;;5116327;28;20200;-68
2022/05/15 02:29:41;;;;;;;11.43;8.07;;;9.50;99.90;;;;;;5116043;28;20248;-68
2022/05/15 02:32:07;;;;;;;8.97;7.77;;;9.40;99.90;;;;;;5116294;28;20164;-67
2022/05/15 02:34:32;;;;;;;17.80;9.40;;;9.40;99.90;;;;;;5115596;28;20215;-68
2022/05/15 02:36:58;;;;;;;11.27;9.43;;;9.40;99.90;;;;;;5115720;28;20197;-68
2022/05/15 02:39:24;;;;;;;10.67;9.40;;;9.50;99.90;;;;;;5096363;28;20614;-68
2022/05/15 02:41:49;;;;;;;12.47;9.70;;;9.50;99.90;;;;;;5115797;28;20221;-68
2022/05/15 02:44:15;;;;;;;12.53;9.43;;;9.50;99.90;;;;;;5115792;28;20200;-68
2022/05/15 02:46:41;;;;;;;10.37;9.27;;;9.50;99.90;;;;;;5116015;28;20208;-68
2022/05/15 02:51:51;;;;;;;11.87;8.93;;;9.50;99.90;;;;;;5116373;28;20223;-68
2022/05/15 02:54:16;;;;;;;10.50;8.63;;;9.60;99.90;;;;;;5115893;28;20168;-68
2022/05/15 02:56:42;;;;;;;14.53;9.33;;;9.50;99.90;;;;;;5115590;28;20192;-68
2022/05/15 02:59:08;;;;;;;12.40;8.87;;;9.40;99.90;;;;;;5097150;28;20182;-69
2022/05/15 03:01:35;;;;;;;10.97;9.20;;;9.40;99.90;;;;;;5115528;28;20546;-68
2022/05/15 03:04:01;;;;;;;14.90;10.07;;;9.40;99.90;;;;;;5115165;28;20243;-67
2022/05/15 03:06:27;;;;;;;13.13;9.17;;;9.40;99.90;;;;;;5115604;28;20200;-68
2022/05/15 03:08:53;;;;;;;13.10;9.57;;;9.40;99.90;;;;;;5096942;28;20192;-67
2022/05/15 03:11:19;;;;;;;11.17;9.20;;;9.40;99.90;;;;;;5096992;28;20190;-68
2022/05/15 03:13:46;;;;;;;11.90;9.57;;;9.40;99.90;;;;;;5115118;28;20196;-68
2022/05/15 03:16:13;;;;;;;13.27;9.03;;;9.30;99.90;;;;;;5115368;28;20202;-68
2022/05/15 03:18:45;;;;;;;10.57;9.37;;;9.20;99.90;;;;;;5096832;28;20223;-68
2022/05/15 03:21:13;;;;;;;12.80;10.03;;;9.20;99.90;;;;;;5114658;28;20176;-68
2022/05/15 03:23:38;;;;;;;12.33;9.83;;;9.20;99.90;;;;;;5115113;28;20253;-68
2022/05/15 03:26:05;;;;;;;13.73;10.00;;;9.10;99.90;;;;;;5114731;28;20680;-68
2022/05/15 03:28:30;;;;;;;12.10;9.43;;;9.10;99.90;;;;;;5115313;28;20169;-68
2022/05/15 03:30:56;;;;;;;14.80;9.30;;;9.10;99.90;;;;;;5114765;28;20229;-68
2022/05/15 03:33:22;;;;;;;14.90;9.63;;;9.10;99.90;;;;;;5115005;28;20289;-68
2022/05/15 03:35:48;;;;;;;11.13;9.23;;;9.10;99.90;;;;;;5114689;28;20179;-68
2022/05/15 03:38:13;;;;;;;9.87;8.87;;;9.00;99.90;;;;;;5114694;28;20230;-68
2022/05/15 03:40:39;;;;;;;11.63;9.03;;;8.90;99.90;;;;;;5114906;28;20232;-68
2022/05/15 03:43:05;;;;;;;14.53;9.73;;;9.00;99.90;;;;;;5114531;28;20200;-68
2022/05/15 03:45:31;;;;;;;12.07;8.87;;;9.00;99.90;;;;;;5096302;28;20180;-68
2022/05/15 03:47:57;;;;;;;11.77;9.10;;;9.00;99.90;;;;;;5114577;28;20192;-67
2022/05/15 03:50:27;;;;;;;15.00;9.40;;;9.00;99.90;;;;;;5113908;28;20184;-68
2022/05/15 03:52:53;;;;;;;14.50;9.70;;;9.00;99.90;;;;;;5114599;28;20202;-68
2022/05/15 03:55:19;;;;;;;12.97;10.20;;;9.00;99.90;;;;;;5114793;28;20180;-68
2022/05/15 03:57:46;;;;;;;11.70;10.03;;;8.90;99.90;;;;;;5114311;28;20196;-68
2022/05/15 04:00:16;;;;;;;13.53;10.67;;;8.80;99.90;;;;;;5114951;28;20176;-68
2022/05/15 04:02:42;;;;;;;14.70;10.63;;;8.80;99.90;;;;;;5114451;28;20176;-68
2022/05/15 04:05:10;;;;;;;12.13;10.50;;;8.80;99.90;;;;;;5095871;28;20208;-68
2022/05/15 04:07:46;;;;;;;10.83;9.73;;;8.90;99.90;;;;;;5114142;28;20199;-67
2022/05/15 04:10:15;;;;;;;16.07;10.17;;;8.90;99.90;;;;;;5096164;28;20195;-68
2022/05/15 04:12:41;;;;;;;12.03;10.13;;;8.90;99.90;;;;;;5114169;28;20188;-68
2022/05/15 04:15:07;;;;;;;13.73;9.50;;;8.90;99.90;;;;;;5114893;28;20177;-68
2022/05/15 04:17:33;;;;;;;12.60;10.13;;;8.90;99.90;;;;;;5114322;28;20204;-69
2022/05/15 04:20:03;;;;;;;15.47;10.07;;;8.90;99.90;;;;;;5114207;28;20549;-69
2022/05/15 04:22:29;;;;;;;19.93;11.13;;;8.90;99.90;;;;;;5114467;28;20181;-68
2022/05/15 04:24:55;;;;;;;15.43;10.53;;;8.90;99.90;;;;;;5114446;28;20210;-68
2022/05/15 04:27:21;;;;;;;12.77;10.87;;;8.90;99.90;;;;;;5095837;28;20196;-68
2022/05/15 04:29:47;;;;;;;15.67;11.13;;;9.00;99.90;;;;;;5114168;28;20225;-68
2022/05/15 04:32:12;;;;;;;15.63;11.33;;;9.00;99.90;;;;;;5096066;28;20184;-68
2022/05/15 04:34:38;;;;;;;12.53;11.13;;;9.00;99.90;;;;;;5113872;28;20218;-69
2022/05/15 04:37:04;;;;;;;12.70;10.70;;;9.00;99.90;;;;;;5114610;28;20200;-68
2022/05/15 04:39:32;;;;;;;16.60;11.97;;;9.00;99.90;;;;;;5114194;28;20177;-68
2022/05/15 04:42:00;;;;;;;13.23;10.90;;;9.10;99.90;;;;;;5114085;28;20191;-68
2022/05/15 04:44:26;;;;;;;16.80;11.07;;;9.20;99.90;;;;;;5114258;28;20201;-69
2022/05/15 04:46:51;;;;;;;14.80;11.07;;;9.20;99.90;;;;;;5095673;28;20201;-68
2022/05/15 04:49:17;;;;;;;15.90;10.80;;;9.20;99.90;;;;;;5114207;28;20169;-68
2022/05/15 04:51:44;;;;;;;12.90;10.47;;;9.30;99.90;;;;;;5113797;28;20210;-67
2022/05/15 04:54:09;;;;;;;12.30;10.93;;;9.40;99.90;;;;;;5114142;28;20181;-68
2022/05/15 04:56:35;;;;;;;14.83;11.23;;;9.50;99.90;;;;;;5113722;28;20333;-68
2022/05/15 04:59:01;;;;;;;18.07;11.73;;;9.60;99.90;;;;;;5114651;28;20208;-68
2022/05/15 05:01:27;;;;;;;15.50;11.47;;;9.70;99.90;;;;;;5114207;28;20273;-69
2022/05/15 05:03:55;;;;;;;16.10;12.50;;;9.70;99.90;;;;;;5116237;28;20211;-68
2022/05/15 05:06:21;;;;;;;18.10;12.87;;;9.80;99.90;;;;;;5117134;28;20196;-69
2022/05/15 05:08:48;;;;;;;15.67;12.10;;;9.90;99.90;;;;;;5117520;28;20588;-68
2022/05/15 05:11:13;;;;;;;21.07;12.40;;;10.00;99.90;;;;;;5117438;28;20168;-68
2022/05/15 05:13:39;;;;;;;21.43;12.30;;;10.10;99.90;;;;;;5117354;28;20632;-69
2022/05/15 05:16:05;;;;;;;14.63;11.60;;;10.20;99.90;;;;;;5117210;28;20180;-68
2022/05/15 05:18:30;;;;;;;20.17;13.50;;;10.20;99.90;;;;;;5117278;28;20229;-68
2022/05/15 05:20:56;;;;;;;20.87;12.80;;;10.30;99.90;;;;;;5098879;28;20545;-68
2022/05/15 05:23:22;;;;;;;15.87;11.70;;;10.30;99.90;;;;;;5117354;28;20295;-68
2022/05/15 05:25:48;;;;;;;22.17;13.13;;;10.30;99.90;;;;;;5117169;28;20181;-68
2022/05/15 05:28:15;;;;;;;14.70;11.60;;;10.40;99.90;;;;;;5117221;28;20189;-68
2022/05/15 05:30:41;;;;;;;18.53;12.93;;;10.40;99.90;;;;;;5098826;28;20183;-68
2022/05/15 05:33:07;;;;;;;15.03;11.50;;;10.50;99.90;;;;;;5116866;28;20730;-68
2022/05/15 05:35:35;;;;;;;17.20;11.93;;;10.60;99.90;;;;;;5116605;28;20180;-68
2022/05/15 05:38:01;;;;;;;15.47;11.27;;;10.70;99.90;;;;;;5116545;28;20204;-68
2022/05/15 05:40:27;;;;;;;13.63;11.20;;;10.80;99.90;;;;;;5116999;28;20625;-68
2022/05/15 05:42:52;;;;;;;14.87;10.53;;;10.90;99.90;;;;;;5116583;28;20230;-68
2022/05/15 05:45:18;;;;;;;15.87;11.43;;;10.90;99.90;;;;;;5117185;28;20175;-68
2022/05/15 05:47:46;;;;;;;17.57;12.17;;;11.00;99.90;;;;;;5116354;28;20192;-68
2022/05/15 05:50:12;;;;;;;15.57;12.23;;;11.00;99.90;;;;;;5116528;28;20248;-69
2022/05/15 05:52:39;;;;;;;16.13;11.73;;;11.00;99.90;;;;;;5116381;28;20200;-68
2022/05/15 05:55:05;;;;;;;14.07;10.47;;;11.10;99.90;;;;;;5116577;28;20572;-68
2022/05/15 05:57:31;;;;;;;16.53;12.17;;;11.30;99.90;;;;;;5116456;28;20271;-68
2022/05/15 05:59:57;;;;;;;16.10;10.53;;;11.40;99.90;;;;;;5116337;28;20716;-68
2022/05/15 06:02:25;;;;;;;15.20;10.97;;;11.50;99.90;;;;;;5116340;28;20177;-68
2022/05/15 06:04:50;;;;;;;12.77;10.10;;;11.70;99.90;;;;;;5116191;28;20220;-69
2022/05/15 06:07:19;;;;;;;10.30;9.27;;;11.80;99.90;;;;;;5116143;28;20610;-68
2022/05/15 06:09:47;;;;;;;16.43;10.57;;;11.90;99.90;;;;;;5116070;28;20571;-68
2022/05/15 06:12:15;;;;;;;15.80;11.10;;;12.00;99.90;;;;;;5116016;28;20172;-68
2022/05/15 06:14:41;;;;;;;15.10;10.87;;;12.10;99.90;;;;;;5115985;28;20271;-68
2022/05/15 06:17:07;;;;;;;16.23;10.43;;;12.30;99.90;;;;;;5116071;28;20231;-68
2022/05/15 06:19:34;;;;;;;12.87;10.53;;;12.40;99.90;;;;;;5097608;28;20191;-69
2022/05/15 06:21:59;;;;;;;15.50;10.25;;;12.50;99.90;;;;;;5115651;28;20694;-68
2022/05/15 06:24:28;;;;;;;11.57;9.37;;;12.60;99.90;;;;;;5115565;28;20196;-68
2022/05/15 06:26:58;;;;;;;14.35;10.18;;;12.80;99.90;;;;;;5115860;28;20193;-69
2022/05/15 06:29:24;;;;;;;14.10;10.27;;;12.90;99.90;;;;;;5115766;28;20153;-69
2022/05/15 06:31:51;;;;;;;11.53;9.00;;;13.00;99.90;;;;;;5114553;28;20281;-69
2022/05/15 06:34:17;;;;;;;15.45;8.70;;;13.10;99.90;;;;;;5115637;28;20179;-69
2022/05/15 06:36:43;;;;;;;13.15;9.35;;;13.20;99.90;;;;;;5115526;28;20192;-69
2022/05/15 06:39:09;;;;;;;12.70;9.35;;;13.30;99.90;;;;;;5115724;28;20241;-69
2022/05/15 06:41:35;;;;;;;14.88;9.52;;;13.50;99.90;;;;;;5115771;28;20168;-69
2022/05/15 06:44:00;;;;;;;16.58;10.07;;;13.60;99.90;;;;;;5115650;28;20222;-69
2022/05/15 06:46:27;;;;;;;14.68;9.82;;;13.70;99.90;;;;;;5097203;28;20192;-69
2022/05/15 06:48:52;;;;;;;12.27;8.48;;;13.80;99.90;;;;;;5115492;28;20172;-69
2022/05/15 06:51:18;;;;;;;11.48;8.60;;;14.00;99.90;;;;;;5115221;28;20168;-68
2022/05/15 06:53:45;;;;;;;11.40;8.50;;;14.10;99.90;;;;;;5115436;28;20200;-68
2022/05/15 06:58:56;;;;;;;14.20;8.73;;;14.30;99.90;;;;;;5115695;28;20167;-69
2022/05/15 07:01:21;;;;;;;14.10;8.20;;;14.40;99.90;;;;;;5115428;28;20633;-68
2022/05/15 07:03:47;;;;;;;15.75;8.30;;;14.60;99.90;;;;;;5115492;28;20231;-68
2022/05/15 07:06:13;;;;;;;13.68;8.35;;;14.60;99.90;;;;;;5096945;28;20199;-69
2022/05/15 07:08:39;;;;;;;16.38;8.10;;;14.70;99.90;;;;;;5116918;28;20577;-69
2022/05/15 07:11:05;;;;;;;12.43;8.05;;;14.80;99.90;;;;;;5115767;28;20169;-69
2022/05/15 07:13:32;;;;;;;13.32;7.47;;;15.00;99.90;;;;;;5115024;28;20595;-69
2022/05/15 07:15:58;;;;;;;18.63;7.65;;;15.10;99.90;;;;;;5096878;28;20208;-69
2022/05/15 07:18:24;;;;;;;11.98;7.32;;;15.30;99.90;;;;;;5097256;28;20633;-69
2022/05/15 07:20:51;;;;;;;12.15;7.10;;;15.40;99.90;;;;;;5114925;28;20174;-69
2022/05/15 07:23:18;;;;;;;11.00;6.82;;;15.50;99.90;;;;;;5096891;28;20694;-69
2022/05/15 07:25:44;;;;;;;9.60;7.05;;;15.70;99.90;;;;;;5114708;28;20179;-69
2022/05/15 07:28:10;;;;;;;9.07;6.38;;;15.70;99.90;;;;;;5116167;28;20192;-69
2022/05/15 07:30:36;;;;;;;12.88;7.45;;;15.90;99.90;;;;;;5098678;28;20182;-69
2022/05/15 07:33:02;;;;;;;10.40;6.40;;;16.00;99.90;;;;;;5098547;28;20271;-69
2022/05/15 07:35:28;;;;;;;12.32;7.03;;;16.20;99.90;;;;;;5097794;28;20215;-69
2022/05/15 07:37:54;;;;;;;10.18;6.50;;;16.30;99.90;;;;;;5097951;28;20201;-69
2022/05/15 07:40:20;;;;;;;11.93;7.18;;;16.50;99.90;;;;;;5117341;28;20179;-69
2022/05/15 07:42:46;;;;;;;9.75;6.68;;;16.60;99.90;;;;;;5097869;28;20267;-68
2022/05/15 07:45:13;;;;;;;14.85;7.07;;;16.80;99.90;;;;;;5097729;28;20291;-68
2022/05/15 07:47:39;;;;;;;9.40;5.90;;;16.90;99.90;;;;;;5097376;28;20223;-69
2022/05/15 07:50:06;;;;;;;14.73;7.03;;;17.00;99.90;;;;;;5114763;28;20544;-69
2022/05/15 07:52:32;;;;;;;12.43;6.10;;;17.10;99.90;;;;;;5114995;28;20204;-69
2022/05/15 07:54:58;;;;;;;10.80;5.78;;;17.30;99.90;;;;;;5115687;28;20173;-69
2022/05/15 07:57:23;;;;;;;8.48;5.00;;;17.40;99.90;;;;;;5097182;28;20668;-69
2022/05/15 07:59:50;;;;;;;11.02;5.95;;;17.50;99.90;;;;;;5115261;28;20293;-69
2022/05/15 08:02:17;;;;;;;17.00;6.10;;;17.60;99.90;;;;;;5115082;28;20176;-69
2022/05/15 08:10:11;;;;;;;11.35;5.20;;;18.00;99.90;;;;;;5115149;28;20167;-69
2022/05/15 08:12:37;;;;;;;7.97;4.50;;;18.10;99.90;;;;;;5114203;28;20172;-70
2022/05/15 08:15:05;;;;;;;15.32;5.07;;;18.30;99.90;;;;;;5114646;28;20539;-69
2022/05/15 08:17:31;;;;;;;8.55;4.22;;;18.40;99.90;;;;;;5114379;28;20189;-69
2022/05/15 08:25:26;;;;;;;9.93;4.20;;;18.80;99.90;;;;;;5114283;28;20210;-69
2022/05/15 08:27:51;;;;;;;14.45;4.82;;;18.90;99.90;;;;;;5114128;28;20192;-69
2022/05/15 08:30:17;;;;;;;7.40;4.13;;;19.00;99.90;;;;;;5114301;28;20172;-69
2022/05/15 08:32:43;;;;;;;12.13;4.53;;;19.20;99.90;;;;;;5095874;28;20694;-69
2022/05/15 08:35:09;;;;;;;10.00;4.38;;;19.30;99.90;;;;;;5114017;28;20226;-69
2022/05/15 08:37:36;;;;;;;11.02;4.20;;;19.50;99.90;;;;;;5114489;28;20653;-69
2022/05/15 08:40:02;;;;;;;17.10;4.45;;;19.60;99.90;;;;;;5099872;28;20212;-69
2022/05/15 08:42:43;;;;;;;9.85;4.60;;;19.80;99.90;;;;;;5118467;28;20172;-70
2022/05/15 08:45:14;;;;;;;10.82;4.50;;;19.90;99.90;;;;;;5117930;28;20192;-69
2022/05/15 08:47:46;;;;;;;10.38;4.40;;;20.00;99.90;;;;;;5118262;28;20184;-69
2022/05/15 08:50:12;;;;;;;9.63;4.18;;;20.20;99.90;;;;;;5118304;28;20287;-70
2022/05/15 08:52:54;;;;;;;11.18;4.68;;;20.50;99.90;;;;;;5099444;28;20648;-69
2022/05/15 08:55:32;;;;;;;9.52;3.95;;;20.70;99.90;;;;;;5099426;28;20747;-70
2022/05/15 08:58:08;;;;;;;8.77;3.90;;;20.80;99.90;;;;;;5117703;28;20192;-70
2022/05/15 09:00:36;;;;;;;9.32;3.95;;;21.00;99.90;;;;;;5117506;28;20633;-70
2022/05/15 09:03:17;;;;;;;9.40;4.03;;;21.20;99.90;;;;;;5099481;28;20552;-69
2022/05/15 09:06:07;;;;;;;12.63;4.53;;;21.30;99.90;;;;;;5117837;28;20188;-69
2022/05/15 09:08:35;;;;;;;9.68;4.22;;;21.40;99.90;;;;;;5117437;28;20191;-70
2022/05/15 09:11:06;;;;;;;9.82;3.80;;;21.50;99.90;;;;;;5117508;28;20176;-69
2022/05/15 09:13:46;;;;;;;13.13;4.47;;;21.60;99.90;;;;;;5117203;28;20192;-69
2022/05/15 09:16:24;;;;;;;10.93;4.05;;;21.70;99.90;;;;;;5099263;28;20291;-70
2022/05/15 09:18:50;;;;;;;6.15;3.45;;;21.80;99.90;;;;;;5099050;28;20179;-70
2022/05/15 09:21:17;;;;;;;8.02;3.58;;;21.90;99.90;;;;;;5117313;28;20540;-70
2022/05/15 09:24:01;;;;;;;7.40;3.22;;;22.00;99.90;;;;;;5117487;28;20311;-70
2022/05/15 09:26:41;;;;;;;7.85;3.60;;;22.10;99.90;;;;;;5117504;28;20231;-70
2022/05/15 09:29:26;;;;;;;10.55;3.30;;;22.30;99.90;;;;;;5098807;28;20657;-70
2022/05/15 09:31:52;;;;;;;12.20;4.65;;;22.40;99.90;;;;;;5117390;28;20163;-70
2022/05/15 09:34:21;;;;;;;6.95;3.25;;;22.40;99.90;;;;;;5117493;28;20168;-69
2022/05/15 09:36:49;;;;;;;11.07;4.43;;;22.50;99.90;;;;;;5116888;28;20199;-70
2022/05/15 09:39:25;;;;;;;10.27;3.47;;;22.60;99.90;;;;;;5117072;28;20233;-70
2022/05/15 09:44:48;;;;;;;7.45;3.63;;;22.70;99.90;;;;;;5117232;28;20257;-70
2022/05/15 09:47:33;;;;;;;7.13;3.60;;;22.90;99.90;;;;;;5116940;28;20559;-70
2022/05/15 09:49:59;;;;;;;8.73;3.20;;;23.10;99.90;;;;;;5098294;28;20176;-70
2022/05/15 09:52:42;;;;;;;7.90;3.58;;;23.20;99.90;;;;;;5116627;28;20226;-70
2022/05/15 09:55:20;;;;;;;8.70;3.55;;;23.40;99.90;;;;;;5117464;28;20164;-70
2022/05/15 09:57:56;;;;;;;10.68;4.07;;;23.60;99.90;;;;;;5098604;28;20235;-70
2022/05/15 10:00:23;;;;;;;10.25;3.67;;;23.50;99.90;;;;;;5098537;28;20177;-71
2022/05/15 10:02:53;;;;;;;7.93;3.72;;;23.60;99.90;;;;;;5098717;28;20183;-71
2022/05/15 10:05:27;;;;;;;10.93;4.00;;;23.50;99.90;;;;;;5117074;28;20184;-71
2022/05/15 10:08:01;;;;;;;8.25;4.07;;;23.70;99.90;;;;;;5112672;28;20559;-70
2022/05/15 10:10:35;;;;;;;6.97;3.40;;;23.60;99.90;;;;;;5096187;28;20556;-70
2022/05/15 10:13:05;;;;;;;11.25;3.95;;;23.60;99.90;;;;;;5096219;28;20180;-71
2022/05/15 10:15:39;;;;;;;6.30;3.60;;;23.60;99.90;;;;;;5096492;28;20173;-70
2022/05/15 10:18:07;;;;;;;6.57;3.03;;;23.70;99.90;;;;;;5096293;28;20189;-71
2022/05/15 10:20:37;;;;;;;7.53;3.28;;;23.80;99.90;;;;;;5096278;28;20169;-71
2022/05/15 10:23:15;;;;;;;9.68;3.88;;;23.80;99.90;;;;;;5095699;28;20188;-71
2022/05/15 10:26:05;;;;;;;9.40;4.07;;;23.90;99.90;;;;;;5077583;28;20255;-71
2022/05/15 10:28:40;;;;;;;10.73;3.95;;;24.00;99.90;;;;;;5096297;28;20184;-71
2022/05/15 10:31:31;;;;;;;10.10;3.75;;;23.90;99.90;;;;;;5077624;28;20169;-70
2022/05/15 10:34:00;;;;;;;7.95;4.05;;;23.90;99.90;;;;;;5096063;28;20640;-70
2022/05/15 10:36:29;;;;;;;13.07;3.42;;;23.90;99.90;;;;;;5095564;28;20200;-71
2022/05/15 10:39:13;;;;;;;12.57;4.00;;;24.00;99.90;;;;;;5108260;28;20185;-70
2022/05/15 10:42:02;;;;;;;9.77;4.53;;;24.00;99.90;;;;;;5097654;28;20183;-71
2022/05/15 10:44:50;;;;;;;5.97;3.50;;;23.90;99.90;;;;;;5097536;28;20201;-70
2022/05/15 10:47:31;;;;;;;7.35;3.17;;;24.00;99.90;;;;;;5097338;28;20284;-70
2022/05/15 10:50:35;;;;;;;11.13;4.50;;;24.10;99.90;;;;;;5115789;28;20149;-70
2022/05/15 10:53:00;;;;;;;11.10;3.88;;;24.10;99.90;;;;;;5115579;28;20200;-70
2022/05/15 10:58:54;;;;;;;9.15;3.58;;;24.00;99.90;;;;;;5025332;28;20242;-71
2022/05/15 11:01:44;;;;;;;8.20;3.95;;;24.10;99.90;;;;;;5096439;28;20164;-71
2022/05/15 11:04:14;;;;;;;7.90;2.92;;;24.30;99.90;;;;;;5115452;28;20237;-71
2022/05/15 11:06:50;;;;;;;6.88;3.53;;;24.50;99.90;;;;;;5115151;28;20195;-71
2022/05/15 11:09:27;;;;;;;7.65;3.35;;;24.50;99.90;;;;;;5115293;28;20183;-71
2022/05/15 11:12:09;;;;;;;11.25;3.67;;;24.60;99.90;;;;;;5115638;28;20640;-71
2022/05/15 11:15:04;;;;;;;8.95;3.60;;;24.60;99.90;;;;;;5115272;28;20199;-71
2022/05/15 11:17:51;;;;;;;8.18;3.85;;;24.60;99.90;;;;;;5115844;28;20197;-71
2022/05/15 11:20:23;;;;;;;9.55;3.55;;;24.70;99.90;;;;;;5115676;28;20632;-70
2022/05/15 11:23:03;;;;;;;8.30;3.35;;;24.80;99.90;;;;;;5096553;28;20169;-71
2022/05/15 11:25:58;;;;;;;8.05;3.50;;;24.70;99.90;;;;;;5096761;28;20172;-71
2022/05/15 11:28:34;;;;;;;7.15;3.30;;;24.90;99.90;;;;;;5091891;28;20510;-71
2022/05/15 11:31:05;;;;;;;12.13;3.38;;;25.10;99.90;;;;;;5097095;28;20570;-71
2022/05/15 11:33:56;;;;;;;7.53;3.72;;;25.30;99.90;;;;;;5096510;28;20301;-71
2022/05/15 11:36:22;;;;;;;10.73;3.40;;;25.50;99.90;;;;;;5114924;28;20218;-71
2022/05/15 11:38:53;;;;;;;6.35;2.80;;;25.70;99.90;;;;;;5115186;28;20615;-71
2022/05/15 11:41:40;;;;;;;9.23;3.03;;;25.70;99.90;;;;;;5114789;28;20156;-71
2022/05/15 11:44:18;;;;;;;11.23;3.30;;;26.00;99.90;;;;;;5115285;28;20686;-71
2022/05/15 11:46:50;;;;;;;8.55;3.20;;;26.30;99.90;;;;;;5096589;28;20199;-71
2022/05/15 11:49:38;;;;;;;8.60;3.30;;;26.40;99.90;;;;;;5096315;28;20218;-70
2022/05/15 11:52:05;;;;;;;8.48;3.08;;;26.40;99.90;;;;;;5114398;28;20172;-71
2022/05/15 11:54:33;;;;;;;9.23;3.15;;;26.50;99.90;;;;;;5114363;28;20645;-71
2022/05/15 11:57:01;;;;;;;8.43;3.05;;;26.80;99.90;;;;;;5096470;28;20231;-71
2022/05/15 11:59:32;;;;;;;7.43;3.05;;;27.10;99.90;;;;;;5114854;28;20692;-71
2022/05/15 12:02:12;;;;;;;5.88;3.08;;;27.20;99.90;;;;;;5114865;28;20187;-71
2022/05/15 12:04:37;;;;;;;7.28;2.80;;;27.40;99.90;;;;;;5114578;28;20198;-71
2022/05/15 12:07:03;;;;;;;6.45;2.60;;;27.70;99.90;;;;;;5095825;28;20201;-71
2022/05/15 12:09:48;;;;;;;4.35;2.70;;;27.80;99.90;;;;;;5095780;28;20214;-71
2022/05/15 12:12:31;;;;;;;6.10;2.88;;;27.90;99.90;;;;;;5114814;28;20170;-72
2022/05/15 12:15:16;;;;;;;9.07;3.40;;;28.00;99.90;;;;;;5115272;28;20164;-71
2022/05/15 12:17:56;;;;;;;8.40;2.95;;;28.20;99.90;;;;;;5115721;28;20556;-71
2022/05/15 12:20:35;;;;;;;8.40;2.95;;;28.10;99.90;;;;;;5116058;28;20628;-71
2022/05/15 12:23:15;;;;;;;14.57;3.55;;;28.20;99.90;;;;;;5096290;28;20190;-71
2022/05/15 12:25:57;;;;;;;12.05;3.38;;;28.40;99.90;;;;;;5095898;28;20694;-72
2022/05/15 12:28:51;;;;;;;9.30;3.10;;;28.20;99.90;;;;;;5114888;28;20165;-71
2022/05/15 12:31:18;;;;;;;7.47;3.05;;;28.30;99.90;;;;;;5115093;28;20153;-71
2022/05/15 12:33:45;;;;;;;8.50;2.88;;;28.60;99.90;;;;;;5114472;28;20251;-72
2022/05/15 12:36:19;;;;;;;11.13;3.35;;;28.60;99.90;;;;;;5095857;28;20217;-72
2022/05/15 12:38:50;;;;;;;5.93;2.97;;;28.30;99.90;;;;;;5114403;28;20187;-71
2022/05/15 12:41:26;;;;;;;9.45;2.97;;;28.60;99.90;;;;;;5114197;28;20633;-71
2022/05/15 12:43:53;;;;;;;8.38;3.08;;;28.70;99.90;;;;;;5095988;28;20195;-71
2022/05/15 12:46:36;;;;;;;8.82;2.92;;;28.80;99.90;;;;;;5114470;28;20203;-71
2022/05/15 12:49:03;;;;;;;9.13;2.92;;;28.70;99.90;;;;;;5096047;28;20214;-71
2022/05/15 12:51:34;;;;;;;30.25;19.08;;;29.20;99.90;;;;;;5114260;28;20641;-71
2022/05/15 12:54:04;;;;;;;9.13;4.53;;;29.30;99.90;;;;;;5113780;28;20176;-71
2022/05/15 12:56:33;;;;;;;5.97;3.08;;;29.50;99.90;;;;;;5114376;28;20555;-72
2022/05/15 12:59:00;;;;;;;6.05;3.22;;;29.30;99.90;;;;;;5113975;28;20629;-71
2022/05/15 13:01:30;;;;;;;8.23;3.13;;;29.40;99.90;;;;;;5095811;28;20183;-71
2022/05/15 13:04:00;;;;;;;10.02;3.35;;;29.30;99.90;;;;;;5095650;28;20668;-71
2022/05/15 13:06:39;;;;;;;9.95;4.18;;;29.50;99.90;;;;;;5114479;28;20601;-72
2022/05/15 13:09:08;;;;;;;8.05;3.20;;;29.50;99.90;;;;;;5114232;28;20187;-71
2022/05/15 13:11:38;;;;;;;9.05;3.60;;;29.30;99.90;;;;;;5114044;28;20173;-72
2022/05/15 13:14:04;;;;;;;8.73;3.47;;;29.00;99.90;;;;;;5114138;28;20571;-71
2022/05/15 13:16:31;;;;;;;9.23;3.22;;;29.10;99.90;;;;;;5095599;28;20200;-71